Create Tblcommutelog Verified Points Advance Search
| # | Trip ID | Id Commuter | Trip Date | Trip Num | Current Lat | Current Lng | Delta Distance | Current Time | Activity | Activity Confidence | Current Speed | |
|---|---|---|---|---|---|---|---|---|---|---|---|---|
| 73821 | 260114_757950_16516154_0905 | 757950 | (not set) | (not set) | 38.879626208145 | -77.277468576506 | 0 | 2026-01-14 09:09:28 | still | 100 | 0.17881570359509 | |
| 73822 | 260114_782182_16415274_0850 | 782182 | (not set) | (not set) | 38.89882809382 | -77.041780585883 | 3.2255 | 2026-01-14 09:10:20 | unknown | 100 | 0.97454558459324 | |
| 73823 | 260114_631037_6428227_0716 | 631037 | (not set) | (not set) | 39.044844633143 | -76.992309382185 | 24.1967 | 2026-01-14 09:11:58 | in_vehicle | 100 | 8.556331417025 | |
| 73824 | 260114_763436_16500126_0841 | 763436 | (not set) | (not set) | 38.9686679 | -76.9344539 | 3.0645 | 2026-01-14 08:53:17 | on_bicycle | 100 | 3.679133101469 | |
| 73825 | 260114_631037_6428227_0716 | 631037 | (not set) | (not set) | 39.040153991293 | -76.990910791136 | 24.5292 | 2026-01-14 09:14:04 | in_vehicle | 100 | 4.5329780861355 | |
| 73826 | 260114_788642_16504316_0845 | 788642 | (not set) | (not set) | 38.910136365403 | -77.075864170134 | 2.9656 | 2026-01-14 09:15:46 | in_vehicle | 100 | 2.0608509839334 | |
| 73827 | 260114_786801_16493786_0915 | 786801 | (not set) | (not set) | 38.829459016041 | -77.050365297047 | 0.0838 | 2026-01-14 09:18:23 | on_foot | 100 | 0.60797339222331 | |
| 73828 | 260114_786801_16493786_0915 | 786801 | (not set) | (not set) | 38.829459016041 | -77.050365297047 | 0.0838 | 2026-01-14 09:18:23 | on_foot | 100 | 0.60797339222331 | |
| 73829 | 260114_788251_16515465_0920 | 788251 | (not set) | (not set) | 38.95766555302 | -77.002401756594 | 0 | 2026-01-14 09:20:31 | still | 33 | 1.4975815176089 | |
| 73830 | 260109_789453_16658316_1631 | 789453 | (not set) | (not set) | 39.074617313443 | -76.913251174569 | 10.1378 | 2026-01-09 16:47:44 | in_vehicle | 100 | 13.83586506567 | |
| 73831 | 260109_787145_16655582_1606 | 787145 | (not set) | (not set) | 38.774417148756 | -77.26134835531 | 15.9928 | 2026-01-09 16:47:57 | in_vehicle | 100 | 9.5845217126968 | |
| 73832 | 260109_785111_16653191_1636 | 785111 | (not set) | (not set) | 39.0420475446 | -77.097017101817 | 4.9814 | 2026-01-09 16:48:20 | unknown | 100 | 13.357533058553 | |
| 73833 | 260109_789839_16658772_1616 | 789839 | (not set) | (not set) | 38.809256247129 | -77.153060605579 | 11.2236 | 2026-01-09 16:48:45 | in_vehicle | 100 | 12.673562992302 | |
| 73834 | 260109_758203_16624675_1645 | 758203 | (not set) | (not set) | 38.893946281164 | -77.022405155329 | 0.5362 | 2026-01-09 16:48:49 | on_foot | 100 | -0.44703925898772 | |
| 73835 | 260109_788423_16657042_1554 | 788423 | (not set) | (not set) | 38.815041182176 | -77.446029086751 | 36.5057 | 2026-01-09 16:49:10 | in_vehicle | 100 | 2.7805841909036 | |
| 73836 | 260109_786375_16654695_1649 | 786375 | (not set) | (not set) | 38.816675185906 | -76.749492625828 | 0 | 2026-01-09 16:49:35 | still | 33 | 0 | |
| 73837 | 260109_788423_16657042_1554 | 788423 | (not set) | (not set) | 38.81493502874 | -77.446106259125 | 36.5144 | 2026-01-09 16:50:00 | in_vehicle | 100 | 0 | |
| 73838 | 260109_784718_16652718_1641 | 784718 | (not set) | (not set) | 39.047887116984 | -76.992837299031 | 1.616 | 2026-01-09 16:50:18 | in_vehicle | 100 | 5.1990665820272 | |
| 73839 | 260109_788480_16657110_1650 | 788480 | (not set) | (not set) | 38.896359345316 | -77.071012274485 | 0 | 2026-01-09 16:50:41 | unknown | 100 | 0.42021690344846 | |
| 73840 | 260109_779681_16647369_1628 | 779681 | (not set) | (not set) | 38.916675449893 | -76.973684868356 | 2.3014 | 2026-01-09 16:50:49 | still | 33 | -0.44703925898772 |